Time;durP1;ratioP1;P1;durP2;ratioP2;P2;SDS_P1;SDS_P2;PMS_P1;PMS_P2;Temp;Humidity;BMP_temperature;BMP_pressure;BME280_temperature;BME280_humidity;BME280_pressure;Samples;Min_cycle;Max_cycle;Signal;HPM_P1;HPM_P2
2022/07/17 00:01:39;;;;;;;8.32;7.75;;;;;;;26.77;56.87;99494.72;5052754;28;20207;-54
2022/07/17 00:04:06;;;;;;;8.02;7.43;;;;;;;26.72;57.52;99503.16;5052813;28;20302;-54
2022/07/17 00:06:33;;;;;;;8.32;7.57;;;;;;;26.79;57.36;99497.22;5052528;28;20686;-54
2022/07/17 00:08:59;;;;;;;8.60;7.90;;;;;;;26.67;57.75;99497.41;5052382;28;20259;-54
2022/07/17 00:11:26;;;;;;;8.00;7.50;;;;;;;26.60;58.33;99500.81;5052067;28;20192;-54
2022/07/17 00:13:54;;;;;;;9.35;8.07;;;;;;;26.55;58.61;99506.56;5052388;28;20287;-57
2022/07/17 00:16:22;;;;;;;8.55;7.75;;;;;;;26.60;58.66;99506.16;5062752;28;20199;-56
2022/07/17 00:18:49;;;;;;;8.45;7.63;;;;;;;26.57;59.07;99515.25;5072348;28;20195;-57
2022/07/17 00:21:16;;;;;;;8.93;8.13;;;;;;;26.61;58.77;99508.66;5072119;28;20196;-57
2022/07/17 00:23:44;;;;;;;8.20;7.60;;;;;;;26.43;59.42;99512.22;5072379;28;20195;-57
2022/07/17 00:26:11;;;;;;;7.82;7.43;;;;;;;26.25;59.76;99498.81;5072150;28;20195;-57
2022/07/17 00:28:38;;;;;;;8.45;7.85;;;;;;;26.24;60.15;99513.94;5072325;28;20219;-57
2022/07/17 00:31:05;;;;;;;8.30;7.55;;;;;;;26.21;58.88;99513.38;5071912;28;20199;-57
2022/07/17 00:33:33;;;;;;;8.00;6.80;;;;;;;26.21;56.91;99508.03;5072222;28;20206;-57
2022/07/17 00:36:00;;;;;;;7.05;6.38;;;;;;;26.24;56.22;99513.09;5071882;28;20668;-58
2022/07/17 00:38:28;;;;;;;6.40;5.97;;;;;;;26.22;55.84;99513.22;5072138;28;20199;-54
2022/07/17 00:40:56;;;;;;;6.35;5.93;;;;;;;26.28;55.17;99512.69;5072042;28;20234;-53
2022/07/17 00:43:24;;;;;;;5.82;5.50;;;;;;;26.33;55.17;99509.59;5071855;28;20196;-54
2022/07/17 00:46:01;;;;;;;5.90;5.60;;;;;;;26.32;54.83;99514.06;5071627;28;20203;-53
2022/07/17 00:48:28;;;;;;;6.20;5.70;;;;;;;26.28;55.19;99518.03;5071498;28;20318;-53
2022/07/17 00:50:57;;;;;;;6.85;6.43;;;;;;;26.28;55.39;99509.19;5071791;28;20200;-53
2022/07/17 00:53:24;;;;;;;10.45;6.07;;;;;;;26.19;55.83;99507.34;5071824;28;20204;-54
2022/07/17 00:55:51;;;;;;;6.13;5.60;;;;;;;26.19;56.31;99518.00;5071602;28;20191;-54
2022/07/17 00:58:21;;;;;;;6.40;6.10;;;;;;;26.12;56.84;99525.72;5071522;28;20282;-54
2022/07/17 01:00:50;;;;;;;6.22;5.93;;;;;;;26.15;56.81;99519.28;5071724;28;20196;-53
2022/07/17 01:03:18;;;;;;;6.93;6.53;;;;;;;26.11;55.26;99523.19;5071264;28;20198;-55
2022/07/17 01:05:45;;;;;;;6.57;6.28;;;;;;;26.02;56.89;99512.44;5071634;28;20577;-54
2022/07/17 01:08:13;;;;;;;6.57;6.18;;;;;;;26.13;57.31;99521.22;5071177;28;20231;-55
2022/07/17 01:10:41;;;;;;;6.97;6.57;;;;;;;26.08;56.93;99523.47;5071407;28;20200;-55
2022/07/17 01:13:08;;;;;;;6.65;6.13;;;;;;;26.07;57.63;99506.69;5071316;28;20295;-54
2022/07/17 01:15:38;;;;;;;6.68;6.18;;;;;;;26.09;58.20;99517.16;5071339;28;21453;-55
2022/07/17 01:18:07;;;;;;;7.05;6.30;;;;;;;26.04;58.74;99515.78;5071154;28;20208;-58
2022/07/17 01:20:35;;;;;;;6.90;6.57;;;;;;;26.08;58.83;99521.66;5071228;28;20583;-55
2022/07/17 01:23:03;;;;;;;6.82;6.32;;;;;;;26.14;57.74;99530.91;5071079;28;20692;-58
2022/07/17 01:25:31;;;;;;;6.93;6.50;;;;;;;26.12;58.57;99531.03;5070924;28;20307;-56
2022/07/17 01:27:58;;;;;;;6.85;6.45;;;;;;;26.12;58.81;99538.19;5071019;28;20234;-54
2022/07/17 01:30:25;;;;;;;6.85;6.45;;;;;;;26.11;58.59;99533.84;5070758;28;20195;-54
2022/07/17 01:32:52;;;;;;;6.85;6.50;;;;;;;26.10;59.60;99532.16;5070987;28;20687;-58
2022/07/17 01:35:19;;;;;;;7.22;6.72;;;;;;;26.06;59.18;99542.25;5071145;28;20202;-53
2022/07/17 01:37:46;;;;;;;7.68;6.90;;;;;;;26.04;59.28;99539.75;5070698;28;20200;-54
2022/07/17 01:40:17;;;;;;;7.15;6.72;;;;;;;25.96;60.27;99536.94;5070776;28;20283;-54
2022/07/17 01:42:46;;;;;;;8.90;7.75;;;;;;;25.94;60.91;99540.72;5070936;28;20202;-58
2022/07/17 01:45:14;;;;;;;7.50;6.90;;;;;;;25.95;61.05;99548.56;5070732;28;20199;-53
2022/07/17 01:47:42;;;;;;;7.88;7.38;;;;;;;25.87;61.04;99540.44;5069733;28;20225;-53
2022/07/17 01:50:10;;;;;;;7.88;7.40;;;;;;;25.87;60.29;99555.56;5070514;28;20583;-57
2022/07/17 01:52:38;;;;;;;8.20;7.70;;;;;;;25.87;61.91;99553.72;5071043;28;20294;-57
2022/07/17 01:55:06;;;;;;;8.80;8.13;;;;;;;25.84;61.88;99554.03;5070426;28;20206;-58
2022/07/17 01:57:34;;;;;;;8.50;8.00;;;;;;;25.89;62.32;99550.94;5070217;28;20203;-57
2022/07/17 02:00:01;;;;;;;9.40;8.70;;;;;;;25.82;61.76;99555.16;5070242;28;20192;-57
2022/07/17 02:02:28;;;;;;;8.60;8.05;;;;;;;25.73;62.38;99554.19;5070249;28;20583;-57
2022/07/17 02:04:55;;;;;;;8.82;8.23;;;;;;;25.66;63.17;99558.34;5070520;28;20199;-57
2022/07/17 02:07:22;;;;;;;8.70;8.10;;;;;;;25.68;62.51;99551.06;5069887;28;20220;-53
2022/07/17 02:09:49;;;;;;;8.80;8.10;;;;;;;25.60;64.08;99548.25;5070269;28;20566;-53
2022/07/17 02:12:16;;;;;;;9.30;8.30;;;;;;;25.56;64.19;99552.16;5070172;28;20685;-53
2022/07/17 02:14:44;;;;;;;8.50;7.88;;;;;;;25.46;64.21;99546.84;5069881;28;25066;-57
2022/07/17 02:17:11;;;;;;;8.18;7.43;;;;;;;25.46;64.70;99553.97;5069786;28;20211;-53
2022/07/17 02:19:38;;;;;;;8.07;7.45;;;;;;;25.45;65.09;99553.13;5069711;28;25053;-58
2022/07/17 02:22:05;;;;;;;8.50;7.75;;;;;;;25.48;64.84;99550.19;5069782;28;20209;-53
2022/07/17 02:24:32;;;;;;;8.38;7.65;;;;;;;25.51;64.55;99541.91;5070112;28;20583;-54
2022/07/17 02:26:59;;;;;;;8.02;7.22;;;;;;;25.45;64.22;99542.50;5069886;28;25053;-54
2022/07/17 02:29:26;;;;;;;8.25;7.47;;;;;;;25.50;63.68;99544.75;5069695;28;20319;-54
2022/07/17 02:31:54;;;;;;;7.65;6.97;;;;;;;25.51;63.15;99546.41;5070120;28;20220;-54
2022/07/17 02:34:21;;;;;;;7.00;6.35;;;;;;;25.55;62.50;99547.81;5069717;28;20209;-54
2022/07/17 02:36:48;;;;;;;7.22;6.63;;;;;;;25.56;62.32;99549.50;5069842;28;20209;-54
2022/07/17 02:39:15;;;;;;;7.38;6.93;;;;;;;25.61;62.61;99560.59;5069855;28;20280;-54
2022/07/17 02:41:42;;;;;;;8.63;7.20;;;;;;;25.54;62.92;99548.78;5069932;28;20209;-54
2022/07/17 02:44:09;;;;;;;8.05;7.30;;;;;;;25.51;63.89;99557.03;5069677;28;20209;-54
2022/07/17 02:46:36;;;;;;;7.68;7.05;;;;;;;25.45;64.42;99563.75;5069599;28;20236;-53
2022/07/17 02:49:04;;;;;;;8.90;7.90;;;;;;;25.29;65.57;99550.97;5069407;28;25117;-54
2022/07/17 02:51:31;;;;;;;8.00;7.60;;;;;;;25.21;66.27;99548.19;5069597;28;25170;-56
2022/07/17 02:53:58;;;;;;;8.45;7.80;;;;;;;25.25;66.61;99562.88;5069356;28;25118;-57
2022/07/17 02:56:25;;;;;;;7.65;7.15;;;;;;;25.09;65.08;99541.28;5069615;28;20285;-57
2022/07/17 02:58:52;;;;;;;8.40;7.90;;;;;;;25.13;66.48;99548.03;5069689;28;20728;-57
2022/07/17 03:01:18;;;;;;;7.82;7.30;;;;;;;25.14;66.04;99560.34;5069557;28;20206;-57
2022/07/17 03:03:46;;;;;;;8.07;7.30;;;;;;;25.11;65.86;99555.28;5069682;28;20672;-57
2022/07/17 03:06:14;;;;;;;9.05;8.30;;;;;;;25.05;67.14;99566.47;5069626;28;20669;-57
2022/07/17 03:08:41;;;;;;;8.60;7.95;;;;;;;24.98;67.32;99565.31;5069007;28;20232;-58
2022/07/17 03:11:08;;;;;;;8.80;8.05;;;;;;;24.93;68.12;99573.69;5069537;28;20235;-57
2022/07/17 03:13:35;;;;;;;9.82;8.88;;;;;;;24.76;68.72;99571.59;5069288;28;20303;-56
2022/07/17 03:16:02;;;;;;;8.98;8.38;;;;;;;24.79;69.20;99579.31;5069422;28;20199;-57
2022/07/17 03:18:29;;;;;;;9.25;8.45;;;;;;;24.83;69.20;99579.91;5069412;28;20597;-56
2022/07/17 03:20:55;;;;;;;9.70;8.85;;;;;;;24.77;69.98;99573.28;5069383;28;20192;-57
2022/07/17 03:23:24;;;;;;;9.60;8.65;;;;;;;24.76;70.61;99581.38;5069570;28;20680;-57
2022/07/17 03:25:51;;;;;;;10.93;10.07;;;;;;;24.72;71.00;99578.16;5069565;28;20788;-54
2022/07/17 03:28:18;;;;;;;9.13;8.38;;;;;;;24.66;71.74;99584.00;5069014;28;20218;-54
2022/07/17 03:30:44;;;;;;;12.65;11.55;;;;;;;24.53;71.51;99586.84;5069431;28;20199;-54
2022/07/17 03:33:11;;;;;;;9.63;8.68;;;;;;;24.46;73.16;99590.16;5069149;28;20196;-53
2022/07/17 03:35:38;;;;;;;9.25;8.65;;;;;;;24.45;72.81;99588.50;5051865;28;20723;-54
2022/07/17 03:38:05;;;;;;;9.48;8.73;;;;;;;24.52;72.38;99592.28;5048789;28;20224;-53
2022/07/17 03:40:34;;;;;;;9.13;8.57;;;;;;;24.64;71.72;99587.75;5048413;28;20220;-54
2022/07/17 03:43:01;;;;;;;9.00;8.18;;;;;;;24.70;71.41;99597.84;5048916;28;20776;-53
2022/07/17 03:45:28;;;;;;;9.52;8.60;;;;;;;24.81;69.69;99598.63;5048664;28;20220;-55
2022/07/17 03:47:55;;;;;;;11.40;6.97;;;;;;;24.88;68.92;99594.44;5049066;28;20239;-53
2022/07/17 03:50:21;;;;;;;7.10;6.70;;;;;;;25.04;67.79;99601.97;5048844;28;20583;-53
2022/07/17 03:52:48;;;;;;;7.72;7.10;;;;;;;25.18;67.12;99603.38;5048814;28;20232;-53
2022/07/17 03:55:15;;;;;;;8.60;7.80;;;;;;;25.33;66.30;99607.34;5048042;28;20220;-56
2022/07/17 03:57:44;;;;;;;8.55;7.80;;;;;;;25.68;64.97;99605.09;5048938;28;20225;-57
2022/07/17 04:00:11;;;;;;;7.40;6.90;;;;;;;26.82;60.84;99609.63;5048794;28;20231;-57
2022/07/17 04:02:38;;;;;;;8.23;7.63;;;;;;;28.23;55.13;99629.63;5068389;28;20223;-57
2022/07/17 04:05:09;;;;;;;7.43;6.93;;;;;;;29.59;50.94;99622.63;5068924;28;20196;-54
2022/07/17 04:07:36;;;;;;;7.43;6.38;;;;;;;30.74;47.36;99640.47;5068681;28;20286;-54
2022/07/17 04:10:03;;;;;;;7.70;7.10;;;;;;;31.64;44.91;99641.06;5065265;28;20669;-53
2022/07/17 04:12:30;;;;;;;8.18;7.32;;;;;;;32.76;42.41;99649.31;5071780;28;20226;-54
2022/07/17 04:14:59;;;;;;;7.32;6.80;;;;;;;33.83;39.88;99655.97;5072534;28;20226;-58
2022/07/17 04:17:26;;;;;;;7.82;6.53;;;;;;;34.59;37.89;99659.81;5071584;28;20610;-53
2022/07/17 04:19:53;;;;;;;7.30;6.53;;;;;;;35.32;36.32;99654.97;5071626;28;20224;-54
2022/07/17 04:22:20;;;;;;;7.22;5.95;;;;;;;35.56;35.29;99672.50;5071365;28;20707;-55
2022/07/17 04:24:47;;;;;;;7.40;5.65;;;;;;;36.13;34.25;99674.78;5071206;28;20273;-56
2022/07/17 04:27:14;;;;;;;7.32;5.45;;;;;;;37.07;33.26;99672.75;5070967;28;20253;-59
2022/07/17 04:29:41;;;;;;;7.25;6.70;;;;;;;37.68;31.83;99675.09;5071287;28;20250;-58
2022/07/17 04:32:10;;;;;;;5.25;4.95;;;;;;;37.84;30.83;99678.34;5070709;28;20687;-58
2022/07/17 04:34:37;;;;;;;6.07;5.78;;;;;;;37.64;30.88;99673.84;5071147;28;20220;-54
2022/07/17 04:37:05;;;;;;;6.50;5.22;;;;;;;38.01;30.06;99671.38;5070694;28;20245;-55
2022/07/17 04:39:32;;;;;;;5.05;4.65;;;;;;;38.06;30.52;99685.91;5070893;28;20219;-54
2022/07/17 04:41:59;;;;;;;6.03;4.68;;;;;;;38.41;29.64;99689.03;5071141;28;20227;-54
2022/07/17 04:44:25;;;;;;;5.43;4.68;;;;;;;39.63;28.32;99692.91;5070980;28;20227;-56
2022/07/17 04:46:53;;;;;;;4.65;4.35;;;;;;;39.78;27.50;99692.50;5070190;28;20219;-59
2022/07/17 04:49:21;;;;;;;4.65;4.22;;;;;;;39.62;27.73;99699.38;5071271;28;20231;-58
2022/07/17 04:51:48;;;;;;;4.65;4.13;;;;;;;39.92;27.50;99704.91;5070127;28;20330;-57
2022/07/17 04:54:15;;;;;;;4.53;4.22;;;;;;;40.22;26.90;99703.00;5067455;28;20294;-58
2022/07/17 04:56:42;;;;;;;3.90;3.60;;;;;;;40.60;26.25;99701.81;5067572;28;20219;-58
2022/07/17 04:59:09;;;;;;;4.00;3.67;;;;;;;41.12;25.56;99693.78;5068859;28;20227;-58
2022/07/17 05:01:36;;;;;;;5.32;4.47;;;;;;;40.95;25.91;99707.31;5065760;28;20730;-59
2022/07/17 05:04:04;;;;;;;4.72;3.75;;;;;;;41.38;25.16;99704.19;5068732;28;20249;-58
2022/07/17 05:06:32;;;;;;;4.45;4.05;;;;;;;41.11;25.21;99701.13;5068737;28;20219;-57
2022/07/17 05:08:59;;;;;;;4.25;3.95;;;;;;;41.18;25.11;99703.75;5068125;28;20234;-58
2022/07/17 05:11:26;;;;;;;4.05;3.55;;;;;;;40.93;25.38;99702.09;5068447;28;20221;-58
2022/07/17 05:13:53;;;;;;;3.78;3.38;;;;;;;41.05;25.02;99707.53;5068953;28;20223;-57
2022/07/17 05:16:20;;;;;;;3.90;3.58;;;;;;;41.04;24.89;99714.03;5069403;28;20264;-58
2022/07/17 05:18:47;;;;;;;3.67;3.40;;;;;;;40.19;25.71;99708.88;5071047;28;20222;-58
2022/07/17 05:21:14;;;;;;;4.38;3.55;;;;;;;40.05;25.76;99715.59;5070738;28;20219;-58
2022/07/17 05:23:42;;;;;;;5.53;3.83;;;;;;;39.65;26.24;99714.41;5069214;28;20219;-58
2022/07/17 05:26:09;;;;;;;5.95;3.72;;;;;;;39.29;26.40;99707.06;5070895;28;20564;-58
2022/07/17 05:28:36;;;;;;;6.80;3.17;;;;;;;40.03;25.46;99715.00;5069723;28;20262;-57
2022/07/17 05:31:03;;;;;;;5.93;3.35;;;;;;;40.66;25.04;99709.00;5069661;28;20204;-57
2022/07/17 05:33:30;;;;;;;3.67;3.45;;;;;;;40.99;24.77;99731.06;5070276;28;20309;-55
2022/07/17 05:35:57;;;;;;;3.30;3.10;;;;;;;41.03;24.18;99731.44;5069799;28;20202;-56
2022/07/17 05:38:24;;;;;;;4.55;3.67;;;;;;;40.62;24.50;99726.91;5069479;28;20192;-55
2022/07/17 05:40:53;;;;;;;3.30;3.00;;;;;;;41.83;23.56;99734.31;5068498;28;20219;-60
2022/07/17 05:43:20;;;;;;;78.63;19.85;;;;;;;42.17;24.21;99739.91;5069596;28;20202;-59
2022/07/17 05:45:47;;;;;;;10.27;5.18;;;;;;;42.75;23.51;99747.78;5070632;28;20195;-60
2022/07/17 05:48:13;;;;;;;4.15;3.70;;;;;;;42.87;22.44;99753.19;5069495;28;20198;-61
2022/07/17 05:50:40;;;;;;;4.70;3.33;;;;;;;42.72;22.58;99748.25;5069718;28;20204;-60
2022/07/17 05:53:07;;;;;;;4.03;3.20;;;;;;;42.73;22.20;99755.38;5070790;28;20298;-61
2022/07/17 05:55:34;;;;;;;3.25;3.05;;;;;;;42.35;22.46;99759.59;5070250;28;20226;-59
2022/07/17 05:58:03;;;;;;;4.03;3.25;;;;;;;42.07;23.50;99756.91;5070205;28;20223;-59
2022/07/17 06:00:30;;;;;;;3.17;2.95;;;;;;;42.44;22.52;99756.53;5069731;28;20199;-60
2022/07/17 06:02:57;;;;;;;8.15;3.65;;;;;;;42.65;22.01;99759.38;5069321;28;20290;-60
2022/07/17 06:05:25;;;;;;;5.57;3.28;;;;;;;42.53;23.01;99763.25;5069172;28;20195;-59
2022/07/17 06:07:52;;;;;;;4.68;3.30;;;;;;;42.49;22.46;99753.88;5068500;28;20230;-60
2022/07/17 06:10:19;;;;;;;3.50;3.28;;;;;;;42.77;22.02;99764.78;5066152;28;20215;-60
2022/07/17 06:12:46;;;;;;;5.03;3.10;;;;;;;42.69;22.33;99759.66;5069433;28;20198;-60
2022/07/17 06:15:15;;;;;;;5.35;3.00;;;;;;;42.41;22.33;99757.03;5069301;28;20203;-59
2022/07/17 06:17:42;;;;;;;7.07;3.55;;;;;;;42.51;23.11;99762.66;5069761;28;20636;-59
2022/07/17 06:20:10;;;;;;;4.93;3.50;;;;;;;42.43;22.34;99758.44;5069259;28;20195;-59
2022/07/17 06:22:37;;;;;;;3.10;2.90;;;;;;;41.57;22.26;99746.59;5067818;28;20199;-59
2022/07/17 06:25:04;;;;;;;5.50;2.95;;;;;;;41.93;22.40;99745.44;5068604;28;20228;-59
2022/07/17 06:27:31;;;;;;;3.53;3.05;;;;;;;41.85;21.68;99751.28;5069151;28;20231;-59
2022/07/17 06:29:58;;;;;;;3.22;2.72;;;;;;;41.63;22.24;99740.19;5069290;28;20711;-61
2022/07/17 06:32:27;;;;;;;4.63;3.00;;;;;;;41.28;21.98;99740.22;5068551;28;20227;-58
2022/07/17 06:34:54;;;;;;;4.53;2.97;;;;;;;41.25;21.60;99745.31;5069374;28;20311;-58
2022/07/17 06:37:21;;;;;;;3.15;2.95;;;;;;;41.17;21.43;99740.25;5069422;28;20227;-58
2022/07/17 06:39:48;;;;;;;2.60;2.40;;;;;;;40.87;21.79;99743.84;5087751;28;20289;-57
2022/07/17 06:42:15;;;;;;;6.07;2.72;;;;;;;40.79;22.20;99738.78;5089487;28;20194;-56
2022/07/17 06:44:42;;;;;;;3.47;3.17;;;;;;;41.46;21.04;99750.13;5088891;28;20286;-57
2022/07/17 06:47:08;;;;;;;2.72;2.50;;;;;;;41.45;21.26;99742.19;5088220;28;20202;-56
2022/07/17 06:49:37;;;;;;;2.78;2.58;;;;;;;41.16;21.13;99744.03;5089381;28;20218;-56
2022/07/17 06:52:04;;;;;;;4.50;2.70;;;;;;;41.22;20.98;99752.06;5089751;28;20588;-56
2022/07/17 06:54:31;;;;;;;4.40;2.90;;;;;;;41.01;21.35;99744.47;5089517;28;20190;-56
2022/07/17 06:56:58;;;;;;;3.17;2.80;;;;;;;41.07;21.97;99753.59;5089758;28;20205;-56
2022/07/17 06:59:25;;;;;;;3.03;2.83;;;;;;;40.80;21.91;99740.44;5089962;28;20194;-56
2022/07/17 07:01:52;;;;;;;5.10;3.10;;;;;;;40.63;22.16;99739.44;5089427;28;20281;-56
2022/07/17 07:04:19;;;;;;;3.92;2.70;;;;;;;40.30;22.13;99734.50;5089391;28;20294;-57
2022/07/17 07:06:48;;;;;;;3.03;2.92;;;;;;;40.20;22.67;99743.19;5089584;28;20689;-57
2022/07/17 07:09:15;;;;;;;3.08;2.90;;;;;;;40.11;22.63;99727.44;5089056;28;20231;-55
2022/07/17 07:11:42;;;;;;;6.70;3.40;;;;;;;40.09;22.39;99741.25;5089471;28;20186;-56
2022/07/17 07:14:09;;;;;;;3.63;3.33;;;;;;;39.55;23.20;99736.69;5089650;28;20631;-56
2022/07/17 07:16:36;;;;;;;4.30;3.22;;;;;;;39.69;22.81;99745.53;5089387;28;20198;-56
2022/07/17 07:19:03;;;;;;;3.22;2.97;;;;;;;39.82;22.66;99740.75;5089517;28;20585;-57
2022/07/17 07:21:30;;;;;;;5.05;3.17;;;;;;;39.95;22.68;99737.06;5089398;28;20198;-57
2022/07/17 07:23:58;;;;;;;5.63;3.15;;;;;;;40.15;22.19;99734.91;5089541;28;20239;-56
2022/07/17 07:26:26;;;;;;;3.55;3.20;;;;;;;40.07;22.40;99739.84;5089535;28;20205;-56
2022/07/17 07:28:53;;;;;;;3.40;3.10;;;;;;;40.02;22.45;99737.81;5089332;28;20201;-56
2022/07/17 07:31:20;;;;;;;4.10;3.45;;;;;;;40.10;22.65;99736.66;5089113;28;20202;-55
2022/07/17 07:33:47;;;;;;;6.50;3.47;;;;;;;40.09;22.63;99743.97;5089516;28;20297;-56
2022/07/17 07:36:14;;;;;;;4.35;2.85;;;;;;;40.38;22.19;99746.94;5089178;28;20205;-56
2022/07/17 07:38:41;;;;;;;3.58;2.85;;;;;;;40.12;22.32;99738.06;5089456;28;20594;-56
2022/07/17 07:41:09;;;;;;;3.10;2.72;;;;;;;39.95;22.37;99747.94;5089313;28;20195;-58
2022/07/17 07:43:36;;;;;;;4.90;3.08;;;;;;;40.33;21.73;99744.91;5089388;28;20709;-57
2022/07/17 07:46:04;;;;;;;4.03;3.30;;;;;;;40.47;21.78;99745.53;5091255;28;20205;-56
2022/07/17 07:48:31;;;;;;;4.20;2.92;;;;;;;40.87;21.18;99752.03;5093094;28;20205;-56
2022/07/17 07:50:58;;;;;;;3.35;3.10;;;;;;;40.76;21.53;99750.13;5092879;28;20226;-56
2022/07/17 07:53:25;;;;;;;2.97;2.47;;;;;;;40.77;21.33;99751.78;5092900;28;20239;-57
2022/07/17 07:55:52;;;;;;;3.45;2.92;;;;;;;41.05;21.23;99759.28;5093125;28;20302;-57
2022/07/17 07:58:20;;;;;;;3.28;2.97;;;;;;;41.50;20.82;99767.69;5092865;28;20517;-57
2022/07/17 08:00:47;;;;;;;3.42;2.92;;;;;;;41.57;20.30;99768.41;5092958;28;20234;-56
2022/07/17 08:03:15;;;;;;;4.40;3.00;;;;;;;41.97;19.93;99767.63;5092699;28;20285;-56
2022/07/17 08:05:42;;;;;;;3.22;2.97;;;;;;;42.27;19.88;99776.38;5092894;28;20293;-56
2022/07/17 08:08:09;;;;;;;4.50;2.67;;;;;;;42.83;18.98;99777.41;5092485;28;20238;-55
2022/07/17 08:10:36;;;;;;;3.08;2.45;;;;;;;42.99;18.77;99776.59;5092693;28;20694;-55
2022/07/17 08:13:03;;;;;;;3.45;3.05;;;;;;;43.13;18.85;99771.59;5092879;28;20203;-56
2022/07/17 08:15:32;;;;;;;6.95;3.15;;;;;;;43.10;18.62;99775.69;5092593;28;20205;-56
2022/07/17 08:17:59;;;;;;;5.03;3.05;;;;;;;42.77;19.26;99775.69;5092573;28;20194;-55
2022/07/17 08:20:26;;;;;;;2.90;2.70;;;;;;;42.68;19.76;99777.94;5092379;28;20195;-55
2022/07/17 08:22:53;;;;;;;3.15;2.60;;;;;;;43.15;19.43;99768.63;5092845;28;20206;-56
2022/07/17 08:25:20;;;;;;;6.82;2.65;;;;;;;42.91;19.27;99767.97;5092462;28;20594;-56
2022/07/17 08:27:47;;;;;;;3.67;2.42;;;;;;;42.81;18.93;99778.75;5092389;28;20205;-55
2022/07/17 08:30:15;;;;;;;3.22;2.65;;;;;;;42.63;18.78;99777.88;5092148;28;20237;-59
2022/07/17 08:32:45;;;;;;;3.13;2.92;;;;;;;42.41;19.06;99765.19;5092209;28;20199;-56
2022/07/17 08:35:12;;;;;;;5.55;2.95;;;;;;;42.68;19.45;99772.50;5092362;28;20194;-57
2022/07/17 08:37:47;;;;;;;2.70;2.60;;;;;;;42.45;18.48;99759.00;5092195;28;20660;-56
2022/07/17 08:40:19;;;;;;;6.57;2.95;;;;;;;42.12;19.65;99762.44;5092252;28;20268;-56
2022/07/17 08:42:46;;;;;;;5.60;2.70;;;;;;;41.16;19.79;99763.91;5092057;28;20199;-56
2022/07/17 08:45:13;;;;;;;2.90;2.70;;;;;;;41.12;20.01;99765.44;5091934;28;20205;-56
2022/07/17 08:47:40;;;;;;;2.92;2.83;;;;;;;40.81;19.78;99763.03;5092144;28;20198;-58
2022/07/17 08:50:10;;;;;;;2.58;2.47;;;;;;;40.38;20.29;99752.41;5091977;28;20222;-58
2022/07/17 08:52:39;;;;;;;2.92;2.72;;;;;;;40.02;20.96;99740.53;5092101;28;20693;-57
2022/07/17 08:55:10;;;;;;;5.35;2.50;;;;;;;40.17;20.71;99749.09;5092060;28;20206;-55
2022/07/17 08:57:39;;;;;;;2.95;2.55;;;;;;;39.91;20.87;99752.19;5091728;28;20210;-56
2022/07/17 09:00:07;;;;;;;4.13;2.97;;;;;;;39.54;21.01;99746.72;5091851;28;20187;-57
2022/07/17 09:02:35;;;;;;;3.05;2.70;;;;;;;39.30;21.36;99744.03;5092133;28;20666;-58
2022/07/17 09:05:02;;;;;;;3.20;2.90;;;;;;;39.40;21.32;99742.47;5091551;28;20248;-57
2022/07/17 09:07:31;;;;;;;4.78;2.85;;;;;;;39.41;21.63;99743.31;5085250;28;20682;-57
2022/07/17 09:09:58;;;;;;;2.92;2.67;;;;;;;39.44;21.43;99745.59;5070457;28;20241;-57
2022/07/17 09:12:27;;;;;;;3.10;2.90;;;;;;;39.36;21.45;99733.13;5063766;28;20225;-58
2022/07/17 09:14:54;;;;;;;3.22;2.97;;;;;;;39.70;21.44;99744.47;5070588;28;20223;-58
2022/07/17 09:17:22;;;;;;;3.10;2.90;;;;;;;39.72;20.82;99747.78;5071152;28;20277;-57
2022/07/17 09:19:49;;;;;;;2.90;2.70;;;;;;;39.71;20.51;99741.53;5070012;28;20215;-57
2022/07/17 09:22:19;;;;;;;3.65;2.72;;;;;;;39.46;20.87;99741.59;5070301;28;20219;-56
2022/07/17 09:24:50;;;;;;;5.28;2.97;;;;;;;39.50;21.36;99747.44;5068175;28;20306;-58
2022/07/17 09:27:32;;;;;;;3.00;2.70;;;;;;;39.28;21.18;99752.41;5070551;28;20223;-58
2022/07/17 09:30:02;;;;;;;2.67;2.58;;;;;;;39.17;20.92;99750.44;5070515;28;20257;-57
2022/07/17 09:32:31;;;;;;;2.92;2.63;;;;;;;39.46;21.15;99743.50;5068355;28;20227;-57
2022/07/17 09:34:59;;;;;;;4.40;3.00;;;;;;;39.47;20.17;99740.56;5069468;28;20707;-58
2022/07/17 09:37:29;;;;;;;9.05;8.18;;;;;;;39.32;20.67;99736.50;5069745;28;20215;-55
2022/07/17 09:39:58;;;;;;;4.65;2.65;;;;;;;38.69;18.89;99747.50;5070386;28;20199;-55
2022/07/17 09:42:28;;;;;;;6.80;6.20;;;;;;;38.71;20.25;99751.69;5068264;28;20284;-55
2022/07/17 09:45:00;;;;;;;6.55;4.65;;;;;;;38.99;20.79;99753.13;5070291;28;20195;-55
2022/07/17 09:47:28;;;;;;;6.43;4.68;;;;;;;38.63;21.26;99732.94;5067965;28;20191;-54
2022/07/17 09:49:56;;;;;;;10.52;9.60;;;;;;;38.95;21.74;99747.28;5070426;28;20606;-54
2022/07/17 09:52:25;;;;;;;18.40;10.95;;;;;;;38.86;21.50;99749.44;5067299;28;20202;-55
2022/07/17 09:54:53;;;;;;;2.88;2.70;;;;;;;38.96;20.93;99746.22;5057826;28;20291;-54
2022/07/17 09:57:25;;;;;;;3.55;3.05;;;;;;;38.86;20.47;99749.44;5067929;28;20245;-55
2022/07/17 09:59:54;;;;;;;3.15;2.60;;;;;;;38.65;20.29;99755.25;5067947;28;20195;-55
2022/07/17 10:02:22;;;;;;;5.22;3.00;;;;;;;38.64;20.97;99761.72;5069919;28;20198;-55
2022/07/17 10:04:49;;;;;;;5.38;2.72;;;;;;;38.99;20.49;99747.69;5067433;28;20202;-54
2022/07/17 10:07:16;;;;;;;3.58;3.28;;;;;;;38.54;21.19;99741.56;5069049;28;20599;-55
2022/07/17 10:09:44;;;;;;;4.90;4.55;;;;;;;38.73;21.47;99741.41;5067723;28;20711;-55
2022/07/17 10:12:11;;;;;;;6.55;3.33;;;;;;;38.69;20.80;99742.91;5068937;28;20214;-55
2022/07/17 10:14:41;;;;;;;5.95;3.28;;;;;;;38.76;20.99;99743.69;5066812;28;20195;-58
2022/07/17 10:17:09;;;;;;;3.67;3.38;;;;;;;38.74;20.84;99734.09;5069883;28;20718;-59
2022/07/17 10:19:47;;;;;;;10.88;4.20;;;;;;;38.36;20.43;99735.00;5069961;28;20229;-58
2022/07/17 10:22:14;;;;;;;3.22;2.92;;;;;;;38.02;21.22;99736.22;5066987;28;20227;-58
2022/07/17 10:24:49;;;;;;;4.00;2.60;;;;;;;37.90;21.03;99723.56;5050329;28;20242;-55
2022/07/17 10:27:21;;;;;;;3.30;2.65;;;;;;;37.65;21.55;99707.19;5057890;28;20222;-55
2022/07/17 10:30:00;;;;;;;3.40;3.10;;;;;;;37.65;22.06;99724.28;5069197;28;20310;-54
2022/07/17 10:32:27;;;;;;;4.50;3.28;;;;;;;37.56;22.02;99719.28;5069157;28;20225;-54
2022/07/17 10:34:59;;;;;;;3.47;3.00;;;;;;;37.41;21.90;99716.84;5068961;28;20220;-54
2022/07/17 10:37:28;;;;;;;3.03;2.83;;;;;;;37.48;22.31;99717.63;5068989;28;20249;-55
2022/07/17 10:39:58;;;;;;;2.97;2.83;;;;;;;37.41;22.60;99714.97;5069599;28;20598;-54
2022/07/17 10:42:46;;;;;;;4.00;2.55;;;;;;;37.38;22.26;99706.41;5069105;28;20223;-57
2022/07/17 10:45:16;;;;;;;3.35;3.05;;;;;;;37.27;23.08;99709.78;5069456;28;20230;-58
2022/07/17 10:47:54;;;;;;;3.35;3.05;;;;;;;37.03;23.14;99698.56;5069247;28;20227;-57
2022/07/17 10:50:25;;;;;;;3.33;3.10;;;;;;;36.81;22.80;99702.53;5068645;28;20271;-57
2022/07/17 10:53:13;;;;;;;3.80;2.80;;;;;;;36.76;22.63;99707.75;5069195;28;20222;-59
2022/07/17 10:55:42;;;;;;;6.30;5.78;;;;;;;36.73;22.79;99700.06;5069773;28;20600;-58
2022/07/17 10:58:21;;;;;;;3.15;2.95;;;;;;;36.35;21.77;99688.97;5068854;28;20246;-58
2022/07/17 11:01:17;;;;;;;3.15;3.05;;;;;;;36.33;22.37;99699.19;5069321;28;20222;-57
2022/07/17 11:03:46;;;;;;;3.83;2.50;;;;;;;36.28;22.84;99688.13;5033574;28;20227;-58
2022/07/17 11:06:16;;;;;;;2.97;2.88;;;;;;;36.11;23.08;99681.44;5068180;28;20199;-57
2022/07/17 11:08:45;;;;;;;4.07;3.80;;;;;;;35.87;23.55;99677.44;5068677;28;20949;-54
2022/07/17 11:11:12;;;;;;;12.77;11.68;;;;;;;35.90;24.07;99672.44;5068726;28;20307;-55
2022/07/17 11:13:39;;;;;;;4.00;3.65;;;;;;;35.98;24.53;99679.53;5069420;28;20192;-55
2022/07/17 11:16:06;;;;;;;3.00;2.75;;;;;;;35.99;23.56;99684.75;5069445;28;20594;-55
2022/07/17 11:18:35;;;;;;;4.88;3.55;;;;;;;35.97;23.90;99659.78;5068451;28;20219;-55
2022/07/17 11:21:04;;;;;;;3.40;2.75;;;;;;;35.88;22.97;99677.22;5069370;28;20192;-55
2022/07/17 11:23:33;;;;;;;3.00;2.70;;;;;;;35.76;23.07;99683.44;5071749;28;20566;-55
2022/07/17 11:26:01;;;;;;;4.30;2.42;;;;;;;35.59;22.23;99677.50;5069548;28;20195;-57
2022/07/17 11:28:33;;;;;;;2.72;2.53;;;;;;;35.16;22.52;99669.59;5071871;28;20191;-55
2022/07/17 11:31:02;;;;;;;2.60;2.50;;;;;;;35.01;22.64;99668.03;5072876;28;20310;-55
2022/07/17 11:33:29;;;;;;;2.60;2.42;;;;;;;35.06;23.36;99655.63;5073077;28;20195;-54
2022/07/17 11:35:58;;;;;;;2.63;2.53;;;;;;;35.09;23.25;99660.63;5072982;28;20206;-55
2022/07/17 11:38:26;;;;;;;5.78;2.80;;;;;;;35.07;22.80;99665.38;5072775;28;20203;-55